Time;durP1;ratioP1;P1;durP2;ratioP2;P2;SDS_P1;SDS_P2;PMS_P1;PMS_P2;Temp;Humidity;BMP_temperature;BMP_pressure;BME280_temperature;BME280_humidity;BME280_pressure;Samples;Min_cycle;Max_cycle;Signal;HPM_P1;HPM_P2
2022/01/28 00:00:06;;;;;;;14.88;3.17;;;;;;;3.39;90.28;102950.69;5033331;28;20039;-73
2022/01/28 00:04:48;;;;;;;17.02;4.15;;;;;;;3.32;90.06;102962.19;5039502;28;20053;-73
2022/01/28 00:07:13;;;;;;;14.85;3.00;;;;;;;3.31;90.08;102978.81;5050949;28;20025;-73
2022/01/28 00:09:38;;;;;;;13.85;3.05;;;;;;;3.26;90.44;102970.97;5048033;28;20106;-74
2022/01/28 00:12:04;;;;;;;13.32;3.05;;;;;;;3.23;90.65;102976.31;5043975;28;20053;-73
2022/01/28 00:14:41;;;;;;;11.85;3.08;;;;;;;3.20;90.06;102976.34;5050734;28;20033;-73
2022/01/28 00:20:51;;;;;;;13.73;2.75;;;;;;;3.12;90.11;102993.94;5025303;28;20070;-73
2022/01/28 00:39:17;;;;;;;14.65;3.13;;;;;;;2.87;90.15;103011.69;5050884;28;20044;-73
2022/01/28 00:41:42;;;;;;;15.13;3.45;;;;;;;2.84;90.49;103004.69;5028193;28;20069;-73
2022/01/28 00:44:07;;;;;;;18.23;3.35;;;;;;;2.77;90.17;103001.25;5021004;28;20041;-73
2022/01/28 00:46:33;;;;;;;18.55;3.17;;;;;;;2.80;90.93;103002.09;5024108;28;20120;-73
2022/01/28 00:48:58;;;;;;;15.52;3.10;;;;;;;2.75;90.65;102996.91;5050306;28;20433;-73
2022/01/28 00:51:23;;;;;;;19.70;3.88;;;;;;;2.76;90.87;102994.28;5045092;28;20459;-72
2022/01/28 00:53:49;;;;;;;13.10;3.00;;;;;;;2.76;91.14;102994.28;5027735;28;20048;-72
2022/01/28 00:56:14;;;;;;;13.13;2.97;;;;;;;2.77;91.28;103000.41;5049828;28;20025;-72
2022/01/28 00:58:40;;;;;;;15.10;3.25;;;;;;;2.78;91.40;103004.75;5034797;28;20049;-72
2022/01/28 01:01:05;;;;;;;18.42;4.25;;;;;;;2.78;91.18;103005.63;5049891;28;20029;-73
2022/01/28 01:03:30;;;;;;;17.70;3.22;;;;;;;2.77;91.43;102997.78;5024892;28;20045;-73
2022/01/28 01:05:55;;;;;;;14.95;2.90;;;;;;;2.77;91.13;102997.78;5042587;28;20041;-72
2022/01/28 01:08:21;;;;;;;14.85;3.53;;;;;;;2.77;91.46;103003.03;5029266;28;20093;-73
2022/01/28 01:10:46;;;;;;;16.52;3.10;;;;;;;2.78;91.55;103004.75;5034562;28;20391;-72
2022/01/28 01:13:12;;;;;;;13.77;2.78;;;;;;;2.76;91.10;103009.13;5042467;28;20030;-72
2022/01/28 01:15:42;;;;;;;15.38;2.88;;;;;;;2.77;91.24;103017.00;5043830;28;20036;-72
2022/01/28 01:18:22;;;;;;;16.80;3.17;;;;;;;2.76;91.16;103017.91;5016664;28;20061;-72
2022/01/28 01:23:27;;;;;;;20.75;3.28;;;;;;;2.77;91.18;103017.00;5027219;28;20064;-72
2022/01/28 01:26:12;;;;;;;15.68;3.47;;;;;;;2.77;91.01;103017.00;5033673;28;20041;-72
2022/01/28 01:28:40;;;;;;;14.68;3.20;;;;;;;2.76;90.86;103017.00;5042862;28;20037;-70
2022/01/28 01:31:11;;;;;;;12.65;2.58;;;;;;;2.75;91.19;103023.16;5037911;28;20029;-71
2022/01/28 01:33:42;;;;;;;16.48;3.10;;;;;;;2.76;91.18;103025.78;5048902;28;20482;-71
2022/01/28 01:36:08;;;;;;;18.92;3.17;;;;;;;2.71;90.93;103026.69;5049376;28;20390;-70
2022/01/28 01:38:36;;;;;;;12.65;2.53;;;;;;;2.73;91.34;103024.91;5042088;28;20033;-70
2022/01/28 01:41:05;;;;;;;11.55;3.03;;;;;;;2.70;91.43;103023.19;5040078;28;20033;-72
2022/01/28 01:53:59;;;;;;;19.63;3.17;;;;;;;2.66;91.88;103052.94;5046567;28;20047;-71
2022/01/28 01:56:24;;;;;;;16.08;3.50;;;;;;;2.68;91.82;103061.72;5034216;28;20021;-70
2022/01/28 01:58:50;;;;;;;21.67;3.25;;;;;;;2.68;91.95;103060.81;5041538;28;20029;-71
2022/01/28 02:01:15;;;;;;;18.38;3.40;;;;;;;2.68;92.36;103076.56;5049846;28;20033;-71
2022/01/28 02:03:40;;;;;;;16.25;3.38;;;;;;;2.68;92.21;103079.19;5050001;28;20024;-71
2022/01/28 02:06:06;;;;;;;15.35;3.05;;;;;;;2.68;92.21;103074.81;5027254;28;20128;-71
2022/01/28 02:08:33;;;;;;;18.15;3.05;;;;;;;2.69;92.18;103076.53;5049623;28;20036;-71
2022/01/28 02:10:59;;;;;;;17.60;3.05;;;;;;;2.68;92.31;103080.06;5048490;28;20505;-71
2022/01/28 02:13:26;;;;;;;17.70;3.85;;;;;;;2.68;92.51;103093.19;5033417;28;20112;-71
2022/01/28 02:15:53;;;;;;;17.23;4.78;;;;;;;2.67;92.42;103096.69;5053272;28;20056;-72
2022/01/28 02:18:19;;;;;;;19.48;2.97;;;;;;;2.66;92.41;103089.69;5040187;28;20438;-70
2022/01/28 02:20:48;;;;;;;17.15;3.10;;;;;;;2.65;92.18;103092.31;5041656;28;20517;-71
2022/01/28 02:23:14;;;;;;;16.10;2.90;;;;;;;2.63;92.30;103089.72;5052144;28;20108;-71
2022/01/28 02:25:39;;;;;;;15.93;3.20;;;;;;;2.62;92.15;103106.34;5052915;28;20104;-72
2022/01/28 02:28:08;;;;;;;14.65;3.20;;;;;;;2.64;92.49;103103.72;5047370;28;20028;-72
2022/01/28 02:30:33;;;;;;;12.93;3.10;;;;;;;2.62;92.41;103106.34;5033583;28;20029;-72
2022/01/28 02:33:20;;;;;;;12.35;2.65;;;;;;;2.61;92.53;103103.72;5048669;28;20033;-72
2022/01/28 02:35:47;;;;;;;13.32;2.55;;;;;;;2.59;92.50;103101.97;5053012;28;20021;-72
2022/01/28 02:38:14;;;;;;;17.63;3.33;;;;;;;2.62;93.26;103108.09;5032215;28;20115;-72
2022/01/28 02:40:45;;;;;;;18.02;3.25;;;;;;;2.62;92.98;103105.47;5044976;28;20025;-71
2022/01/28 02:45:53;;;;;;;20.23;3.55;;;;;;;2.64;92.96;103103.72;5052906;28;20037;-72
2022/01/28 02:48:22;;;;;;;13.55;2.88;;;;;;;2.65;93.29;103102.81;5052840;28;20060;-72
2022/01/28 02:51:33;;;;;;;14.05;2.63;;;;;;;2.65;93.31;103106.31;5041259;28;20034;-72
2022/01/28 02:53:41;;;;;;;16.42;2.83;;;;;;;2.63;93.01;103110.72;5050001;28;20115;-72
2022/01/28 02:56:34;;;;;;;14.40;3.00;;;;;;;2.66;93.15;103118.53;5042850;28;20430;-73
2022/01/28 02:59:00;;;;;;;16.33;2.85;;;;;;;2.64;93.22;103116.84;5050945;28;20029;-72
2022/01/28 03:01:25;;;;;;;14.02;2.80;;;;;;;2.67;93.16;103122.91;5052733;28;20028;-72
2022/01/28 03:03:51;;;;;;;11.88;3.35;;;;;;;2.65;93.13;103129.94;5048538;28;20585;-71
2022/01/28 03:06:19;;;;;;;22.10;3.58;;;;;;;2.65;93.05;103126.41;5029296;28;20059;-72
2022/01/28 03:08:55;;;;;;;23.27;3.28;;;;;;;2.65;92.96;103131.66;5052046;28;20029;-72
2022/01/28 03:14:15;;;;;;;16.33;3.60;;;;;;;2.62;93.32;103137.81;5032798;28;20112;-72
2022/01/28 03:19:46;;;;;;;18.77;4.05;;;;;;;2.61;93.14;103137.84;5048672;28;20052;-71
2022/01/28 03:22:11;;;;;;;16.65;3.13;;;;;;;2.59;93.03;103137.84;5032893;28;20049;-71
2022/01/28 03:24:37;;;;;;;19.80;3.03;;;;;;;2.63;93.42;103143.94;5051265;28;20584;-72
2022/01/28 03:27:09;;;;;;;17.02;3.42;;;;;;;2.62;93.50;103147.47;5049402;28;20025;-72
2022/01/28 03:29:35;;;;;;;8.02;2.92;;;;;;;2.63;93.66;103146.56;5033369;28;20033;-72
2022/01/28 03:32:00;;;;;;;20.77;3.72;;;;;;;2.63;93.68;103141.31;5039722;28;20027;-71
2022/01/28 03:34:25;;;;;;;18.88;3.15;;;;;;;2.64;93.84;103140.44;5043011;28;20032;-71
2022/01/28 03:36:51;;;;;;;17.88;3.38;;;;;;;2.66;94.13;103136.91;5051338;28;20028;-71
2022/01/28 03:39:18;;;;;;;14.13;3.75;;;;;;;2.68;94.36;103140.41;5051532;28;20017;-72
2022/01/28 03:41:43;;;;;;;16.17;3.60;;;;;;;2.70;94.61;103136.03;5034845;28;20043;-71
2022/01/28 03:44:08;;;;;;;20.52;3.50;;;;;;;2.74;94.89;103140.34;5044651;28;20026;-71
2022/01/28 03:46:34;;;;;;;13.25;3.00;;;;;;;2.76;94.66;103146.50;5039758;28;20025;-71
2022/01/28 03:49:02;;;;;;;20.75;3.53;;;;;;;2.78;94.69;103142.09;5038650;28;20502;-70
2022/01/28 03:51:27;;;;;;;14.45;3.17;;;;;;;2.77;94.43;103142.09;5051363;28;20106;-70
2022/01/28 03:53:53;;;;;;;16.33;3.13;;;;;;;2.78;94.40;103141.19;5051245;28;20435;-70
2022/01/28 03:56:18;;;;;;;15.70;3.08;;;;;;;2.76;94.28;103140.34;5051123;28;20056;-70
2022/01/28 03:58:44;;;;;;;13.93;3.17;;;;;;;2.76;93.79;103150.84;5037558;28;20091;-70
2022/01/28 04:01:16;;;;;;;15.82;3.00;;;;;;;2.72;93.71;103157.00;5051230;28;20024;-71
2022/01/28 04:11:59;;;;;;;10.48;2.85;;;;;;;2.65;93.51;103169.31;5027834;28;20036;-71
2022/01/28 04:17:20;;;;;;;12.07;3.00;;;;;;;2.61;93.41;103164.06;5040234;28;20110;-72
2022/01/28 04:19:46;;;;;;;10.77;2.72;;;;;;;2.59;93.51;103172.81;5047321;28;20033;-71
2022/01/28 04:22:12;;;;;;;14.13;2.38;;;;;;;2.57;93.94;103177.19;5050981;28;20020;-71
2022/01/28 04:24:37;;;;;;;7.93;2.28;;;;;;;2.57;93.93;103173.72;5044231;28;20054;-72
2022/01/28 04:27:02;;;;;;;8.40;2.83;;;;;;;2.56;94.33;103164.94;5050711;28;20047;-72
2022/01/28 04:29:28;;;;;;;12.82;3.03;;;;;;;2.55;94.43;103163.22;5047385;28;20040;-72
2022/01/28 04:31:53;;;;;;;15.75;2.60;;;;;;;2.56;94.29;103171.97;5036221;28;20471;-72
2022/01/28 04:34:21;;;;;;;15.00;2.78;;;;;;;2.56;94.68;103185.94;5033973;28;20030;-71
2022/01/28 04:37:01;;;;;;;19.85;3.58;;;;;;;2.55;94.69;103188.59;5049171;28;20025;-71
2022/01/28 04:39:36;;;;;;;18.80;3.33;;;;;;;2.55;95.10;103188.59;5050497;28;20036;-71
2022/01/28 04:42:14;;;;;;;15.57;3.70;;;;;;;2.55;95.55;103184.22;5046572;28;20049;-71
2022/01/28 04:55:10;;;;;;;14.65;3.80;;;;;;;2.54;95.74;103194.72;5009121;28;20483;-71
2022/01/28 04:57:55;;;;;;;23.05;3.80;;;;;;;2.51;95.86;103190.34;5009510;28;20053;-71
2022/01/28 05:00:34;;;;;;;17.48;4.03;;;;;;;2.48;95.55;103189.50;5009114;28;20021;-71
2022/01/28 05:06:26;;;;;;;15.98;4.20;;;;;;;2.46;96.02;103199.13;5010544;28;20108;-71
2022/01/28 05:14:22;;;;;;;20.92;4.60;;;;;;;2.37;95.38;103218.41;5010829;28;20042;-72
2022/01/28 05:27:11;;;;;;;13.35;4.07;;;;;;;2.21;95.62;103220.19;5010628;28;20109;-72
2022/01/28 05:29:39;;;;;;;21.45;4.35;;;;;;;2.21;95.24;103223.72;5012643;28;20361;-72
2022/01/28 05:32:05;;;;;;;19.27;5.55;;;;;;;2.17;95.72;103227.19;5033982;28;20391;-72
2022/01/28 05:34:30;;;;;;;20.13;4.50;;;;;;;2.15;95.09;103231.59;5049764;28;20500;-71
2022/01/28 05:36:56;;;;;;;14.10;4.32;;;;;;;2.12;94.98;103228.09;5049856;28;20112;-71
2022/01/28 05:39:21;;;;;;;19.75;4.38;;;;;;;2.11;94.98;103242.09;5039083;28;20025;-71
2022/01/28 05:41:47;;;;;;;15.80;4.60;;;;;;;2.09;95.24;103244.69;5050127;28;20040;-71
2022/01/28 05:44:13;;;;;;;13.88;4.18;;;;;;;2.06;95.36;103249.94;5049829;28;20017;-73
2022/01/28 05:46:38;;;;;;;16.77;4.30;;;;;;;2.04;95.16;103249.94;5031720;28;20499;-72
2022/01/28 05:49:04;;;;;;;15.98;3.90;;;;;;;2.02;95.19;103246.47;5048648;28;20469;-72
2022/01/28 05:51:29;;;;;;;14.60;4.35;;;;;;;2.00;95.40;103253.47;5053675;28;20029;-71
2022/01/28 05:53:57;;;;;;;15.73;4.32;;;;;;;1.96;94.97;103253.47;5053575;28;20025;-71
2022/01/28 05:56:24;;;;;;;16.98;4.05;;;;;;;1.92;94.64;103249.97;5044641;28;20036;-71
2022/01/28 05:58:49;;;;;;;19.40;4.22;;;;;;;1.90;94.88;103261.34;5053605;28;20045;-72
2022/01/28 06:01:15;;;;;;;19.70;4.20;;;;;;;1.86;95.05;103249.97;5044427;28;20115;-72
2022/01/28 06:03:41;;;;;;;12.80;3.75;;;;;;;1.84;95.13;103252.59;5036750;28;20482;-72
2022/01/28 06:06:08;;;;;;;15.82;4.20;;;;;;;1.80;94.73;103263.97;5053406;28;20080;-72
2022/01/28 06:08:34;;;;;;;16.98;4.93;;;;;;;1.78;94.85;103275.31;5041848;28;20036;-73
2022/01/28 06:10:59;;;;;;;15.77;4.70;;;;;;;1.76;94.71;103287.56;5049469;28;20630;-71
2022/01/28 06:13:25;;;;;;;18.58;4.15;;;;;;;1.74;95.08;103289.31;5039827;28;20024;-72
2022/01/28 06:15:50;;;;;;;16.38;4.30;;;;;;;1.72;95.21;103288.44;5039430;28;20382;-71
2022/01/28 06:18:15;;;;;;;20.27;4.07;;;;;;;1.71;95.74;103284.94;5053221;28;20070;-71
2022/01/28 06:20:40;;;;;;;16.70;4.18;;;;;;;1.72;95.53;103288.44;5040171;28;20367;-72
2022/01/28 06:23:06;;;;;;;18.83;4.32;;;;;;;1.66;94.89;103286.69;5053067;28;20025;-71
2022/01/28 06:25:31;;;;;;;17.42;4.05;;;;;;;1.61;94.62;103294.53;5034796;28;20072;-72
2022/01/28 06:27:56;;;;;;;16.02;3.67;;;;;;;1.59;95.11;103293.66;5044072;28;20032;-72
2022/01/28 06:30:22;;;;;;;19.80;4.13;;;;;;;1.56;95.14;103296.28;5029666;28;20434;-73
2022/01/28 06:32:51;;;;;;;12.25;3.90;;;;;;;1.55;95.32;103299.78;5048413;28;20485;-73
2022/01/28 06:35:16;;;;;;;17.85;5.38;;;;;;;1.54;95.29;103302.41;5036164;28;20064;-72
2022/01/28 06:37:45;;;;;;;12.63;4.45;;;;;;;1.50;94.97;103314.63;5052898;28;20456;-71
2022/01/28 06:40:14;;;;;;;17.88;4.32;;;;;;;1.49;95.52;103318.09;5052911;28;20115;-71
2022/01/28 06:42:40;;;;;;;16.10;3.85;;;;;;;1.45;95.22;103324.22;5046743;28;20487;-71
2022/01/28 06:45:05;;;;;;;16.73;4.30;;;;;;;1.43;94.85;103320.72;5052525;28;20078;-72
2022/01/28 06:47:31;;;;;;;16.52;4.60;;;;;;;1.39;94.97;103319.84;5052941;28;20163;-72
2022/01/28 06:49:57;;;;;;;14.30;3.88;;;;;;;1.36;95.36;103327.69;5049676;28;20029;-71
2022/01/28 06:52:22;;;;;;;15.60;4.40;;;;;;;1.35;95.76;103325.06;5052628;28;20025;-71
2022/01/28 06:54:47;;;;;;;17.88;4.68;;;;;;;1.33;95.80;103332.91;5052613;28;20481;-71
2022/01/28 06:57:12;;;;;;;12.80;4.38;;;;;;;1.33;96.10;103340.75;5048801;28;20029;-74
2022/01/28 06:59:38;;;;;;;12.73;4.03;;;;;;;1.32;96.37;103349.50;5052292;28;20031;-71
2022/01/28 07:02:03;;;;;;;19.15;3.85;;;;;;;1.30;96.10;103353.88;5052293;28;20479;-72
2022/01/28 07:04:28;;;;;;;19.23;4.75;;;;;;;1.25;96.04;103359.09;5045102;28;20041;-72
2022/01/28 07:06:54;;;;;;;15.32;4.68;;;;;;;1.24;95.79;103367.78;5026134;28;20120;-73
2022/01/28 07:09:19;;;;;;;18.85;5.18;;;;;;;1.23;96.32;103371.31;5034103;28;20084;-73
2022/01/28 07:11:44;;;;;;;15.05;3.53;;;;;;;1.19;95.76;103374.75;5042637;28;20386;-72
2022/01/28 07:14:10;;;;;;;16.15;4.40;;;;;;;1.15;95.62;103386.09;5033688;28;20049;-72
2022/01/28 07:16:36;;;;;;;17.45;4.68;;;;;;;1.12;95.53;103391.31;5044528;28;20059;-72
2022/01/28 07:19:02;;;;;;;17.58;3.88;;;;;;;1.10;95.95;103387.84;5048572;28;20029;-74
2022/01/28 07:21:28;;;;;;;19.20;4.47;;;;;;;1.07;95.91;103388.69;5026180;28;20025;-73
2022/01/28 07:23:54;;;;;;;20.10;4.57;;;;;;;1.06;95.75;103396.53;5023224;28;20046;-73
2022/01/28 07:26:19;;;;;;;16.35;3.92;;;;;;;1.02;96.04;103400.00;5032423;28;20106;-73
2022/01/28 07:28:46;;;;;;;15.23;4.75;;;;;;;1.02;95.99;103397.41;5033746;28;20045;-73
2022/01/28 07:31:14;;;;;;;13.23;4.28;;;;;;;0.99;96.22;103394.75;5025079;28;20053;-73
2022/01/28 07:33:40;;;;;;;12.48;4.40;;;;;;;1.00;96.42;103391.25;5030863;28;20041;-74
2022/01/28 07:36:06;;;;;;;18.60;4.35;;;;;;;0.96;96.02;103403.47;5031105;28;20451;-72
2022/01/28 07:38:31;;;;;;;16.13;4.22;;;;;;;0.94;96.01;103413.03;5036893;28;20040;-72
2022/01/28 07:40:58;;;;;;;15.55;4.75;;;;;;;0.91;95.97;103413.03;5010501;28;20026;-72
2022/01/28 07:43:24;;;;;;;13.57;4.47;;;;;;;0.90;96.46;103420.00;5018378;28;20044;-73
2022/01/28 07:45:49;;;;;;;21.17;4.93;;;;;;;0.90;97.13;103416.53;5014498;28;20550;-73
2022/01/28 07:48:14;;;;;;;15.18;4.60;;;;;;;0.90;96.49;103416.53;5045449;28;20492;-73
2022/01/28 07:50:40;;;;;;;10.25;4.18;;;;;;;0.90;96.80;103411.28;5019857;28;20030;-72
2022/01/28 07:53:05;;;;;;;16.67;5.00;;;;;;;0.89;96.57;103420.88;5022187;28;20042;-73
2022/01/28 07:55:31;;;;;;;15.50;4.72;;;;;;;0.87;96.75;103420.00;5077458;28;20032;-73
2022/01/28 07:57:56;;;;;;;12.80;4.30;;;;;;;0.85;96.43;103421.72;5034084;28;20107;-73
2022/01/28 08:00:26;;;;;;;12.93;4.53;;;;;;;0.87;96.47;103422.59;5030258;28;20442;-73
2022/01/28 08:02:51;;;;;;;16.17;5.60;;;;;;;0.87;96.98;103422.59;4992448;28;20157;-73
2022/01/28 08:05:17;;;;;;;19.58;5.88;;;;;;;0.87;97.05;103421.75;5047403;28;20128;-73
2022/01/28 08:07:43;;;;;;;19.30;4.95;;;;;;;0.88;97.64;103428.69;5034951;28;20037;-73
2022/01/28 08:10:09;;;;;;;21.45;5.72;;;;;;;0.88;97.73;103429.59;5049157;28;20096;-73
2022/01/28 08:12:52;;;;;;;19.48;5.05;;;;;;;0.91;97.87;103433.97;5034963;28;20440;-73
2022/01/28 08:15:19;;;;;;;18.52;5.47;;;;;;;0.90;97.97;103440.09;5021982;28;20399;-73
2022/01/28 08:17:45;;;;;;;23.05;5.78;;;;;;;0.86;98.19;103428.69;5013431;28;20033;-73
2022/01/28 08:20:12;;;;;;;15.13;5.43;;;;;;;0.91;98.61;103447.03;5016918;28;20029;-73
2022/01/28 08:22:46;;;;;;;16.27;5.55;;;;;;;0.95;98.61;103447.94;5019014;28;20060;-73
2022/01/28 08:25:11;;;;;;;21.10;6.00;;;;;;;0.99;98.94;103462.81;5032559;28;20120;-74
2022/01/28 08:27:37;;;;;;;11.73;5.53;;;;;;;0.99;98.58;103473.28;5029873;28;20113;-72
2022/01/28 08:30:03;;;;;;;19.42;6.38;;;;;;;1.03;99.18;103481.16;5034438;28;20057;-73
2022/01/28 08:32:28;;;;;;;21.85;6.28;;;;;;;1.09;99.44;103475.06;5013036;28;20033;-72
2022/01/28 08:34:54;;;;;;;16.15;5.95;;;;;;;1.15;99.46;103468.97;5012571;28;20090;-72
2022/01/28 08:37:19;;;;;;;19.90;6.60;;;;;;;1.19;99.93;103468.13;5014892;28;20534;-71
2022/01/28 08:39:44;;;;;;;25.30;7.05;;;;;;;1.27;100.00;103474.28;5015957;28;20034;-71
2022/01/28 08:42:10;;;;;;;20.27;7.25;;;;;;;1.36;99.87;103489.16;5018618;28;20030;-71
2022/01/28 08:44:35;;;;;;;18.58;7.13;;;;;;;1.44;100.00;103483.09;5047532;28;20040;-71
2022/01/28 08:47:00;;;;;;;25.00;6.97;;;;;;;1.54;100.00;103478.75;5028984;28;20108;-71
2022/01/28 08:49:25;;;;;;;20.27;7.60;;;;;;;1.60;100.00;103475.28;5031516;28;20043;-71
2022/01/28 08:51:51;;;;;;;17.33;6.65;;;;;;;1.67;100.00;103483.16;5024434;28;20520;-71
2022/01/28 08:54:16;;;;;;;26.30;7.80;;;;;;;1.77;100.00;103475.34;5036593;28;20040;-71
2022/01/28 08:56:42;;;;;;;21.48;7.00;;;;;;;1.84;100.00;103470.09;5050374;28;20043;-71
2022/01/28 08:59:08;;;;;;;21.55;7.57;;;;;;;1.98;100.00;103477.13;5019409;28;20125;-71
2022/01/28 09:01:33;;;;;;;24.42;7.38;;;;;;;2.05;100.00;103476.28;5044358;28;20108;-71
2022/01/28 09:03:58;;;;;;;21.95;7.75;;;;;;;2.11;100.00;103481.50;5036997;28;20091;-71
2022/01/28 09:06:24;;;;;;;27.83;7.70;;;;;;;2.18;100.00;103480.66;5038748;28;20510;-73
2022/01/28 09:08:53;;;;;;;28.88;8.20;;;;;;;2.27;100.00;103482.41;5026972;28;20069;-71
2022/01/28 09:13:47;;;;;;;22.23;7.53;;;;;;;2.46;100.00;103478.03;5027583;28;20011;-72
2022/01/28 09:16:12;;;;;;;27.35;8.70;;;;;;;2.52;100.00;103482.44;5038279;28;20121;-71
2022/01/28 09:18:38;;;;;;;23.63;7.53;;;;;;;2.65;100.00;103478.94;5048793;28;20384;-71
2022/01/28 09:21:03;;;;;;;24.73;8.20;;;;;;;2.74;100.00;103468.41;5033683;28;20127;-71
2022/01/28 09:23:28;;;;;;;22.85;8.85;;;;;;;2.85;100.00;103480.63;5021279;28;20076;-72
2022/01/28 09:25:54;;;;;;;20.48;7.85;;;;;;;2.96;100.00;103491.97;5022659;28;20120;-71
2022/01/28 09:28:19;;;;;;;24.00;8.55;;;;;;;3.07;100.00;103479.72;5035418;28;20025;-71
2022/01/28 09:30:45;;;;;;;22.83;8.60;;;;;;;3.21;100.00;103484.06;5023952;28;20044;-72
2022/01/28 09:33:10;;;;;;;24.27;8.73;;;;;;;3.36;100.00;103494.50;5051030;28;20047;-72
2022/01/28 09:35:36;;;;;;;23.85;8.70;;;;;;;3.52;100.00;103500.59;5037870;28;20042;-72
2022/01/28 09:38:02;;;;;;;26.65;8.85;;;;;;;3.68;100.00;103493.47;5033828;28;20040;-70
2022/01/28 09:40:28;;;;;;;20.38;8.07;;;;;;;3.86;100.00;103490.78;5028892;28;20049;-70
2022/01/28 09:42:54;;;;;;;28.17;9.10;;;;;;;4.00;100.00;103489.81;5036590;28;20021;-71
2022/01/28 09:45:23;;;;;;;26.95;9.05;;;;;;;4.14;100.00;103487.09;5031980;28;20403;-71
2022/01/28 09:47:53;;;;;;;22.20;7.25;;;;;;;4.28;99.60;103484.34;5029412;28;20371;-70
2022/01/28 09:50:23;;;;;;;24.35;8.45;;;;;;;4.41;98.94;103499.16;5024624;28;20041;-71
2022/01/28 09:52:50;;;;;;;29.80;7.57;;;;;;;4.54;98.76;103492.03;5039701;28;20494;-72
2022/01/28 09:55:16;;;;;;;26.50;7.75;;;;;;;4.70;98.07;103503.31;5047613;28;20036;-71
2022/01/28 09:57:42;;;;;;;23.20;7.65;;;;;;;4.82;97.80;103505.81;5041371;28;20403;-71
2022/01/28 10:00:09;;;;;;;23.50;8.13;;;;;;;4.92;96.87;103511.88;5049398;28;20419;-71
2022/01/28 10:02:59;;;;;;;21.55;6.97;;;;;;;5.04;95.99;103516.16;5042786;28;20298;-71
2022/01/28 10:05:29;;;;;;;23.08;7.22;;;;;;;5.19;96.50;103502.81;5026192;28;20045;-71
2022/01/28 10:07:59;;;;;;;20.83;6.72;;;;;;;5.36;95.75;103498.22;5053120;28;20029;-70
2022/01/28 10:10:26;;;;;;;22.05;6.30;;;;;;;5.46;95.11;103495.47;5030528;28;20035;-72
2022/01/28 10:13:12;;;;;;;21.50;7.30;;;;;;;5.58;94.91;103503.22;5053161;28;20029;-71
2022/01/28 10:15:55;;;;;;;26.23;6.78;;;;;;;5.69;93.69;103496.03;5050384;28;20025;-71
2022/01/28 10:18:20;;;;;;;20.23;6.03;;;;;;;5.82;93.10;103507.28;5033363;28;20056;-71
2022/01/28 10:20:46;;;;;;;18.95;6.35;;;;;;;5.93;93.44;103505.38;5033217;28;20487;-71
2022/01/28 10:23:14;;;;;;;17.83;5.95;;;;;;;6.04;91.47;103501.75;5033179;28;20057;-71
2022/01/28 10:25:42;;;;;;;24.80;6.72;;;;;;;6.15;91.81;103496.31;5013283;28;20069;-71
2022/01/28 10:28:12;;;;;;;20.40;6.35;;;;;;;6.29;92.27;103503.13;5013450;28;20018;-70
2022/01/28 10:30:42;;;;;;;23.75;6.72;;;;;;;6.41;92.46;103509.97;5022580;28;20034;-72
2022/01/28 10:33:16;;;;;;;22.25;5.97;;;;;;;6.50;90.96;103497.53;5049277;28;20028;-72
2022/01/28 10:35:55;;;;;;;17.08;6.15;;;;;;;6.58;90.24;103508.84;5052910;28;20036;-73
2022/01/28 10:38:46;;;;;;;19.17;6.28;;;;;;;6.69;90.92;103513.91;5052520;28;20538;-73
2022/01/28 10:41:17;;;;;;;15.98;5.75;;;;;;;6.79;90.46;103508.44;5050185;28;20044;-73
2022/01/28 10:43:52;;;;;;;19.35;5.60;;;;;;;6.92;89.83;103509.09;5051589;28;20028;-72
2022/01/28 10:46:36;;;;;;;18.33;5.38;;;;;;;7.07;90.19;103515.00;5036044;28;20044;-74
2022/01/28 10:49:05;;;;;;;23.85;6.28;;;;;;;7.15;89.84;103505.16;5052622;28;20029;-74
2022/01/28 10:51:45;;;;;;;17.05;6.00;;;;;;;7.32;89.55;103503.03;5040539;28;20038;-74
2022/01/28 10:54:16;;;;;;;22.25;5.53;;;;;;;7.39;88.27;103499.38;5025653;28;20060;-74
2022/01/28 10:56:54;;;;;;;23.42;5.78;;;;;;;7.44;87.51;103499.25;5047686;28;20025;-73
2022/01/28 10:59:33;;;;;;;16.55;5.15;;;;;;;7.63;86.79;103491.81;5064444;28;20423;-73
2022/01/28 11:01:59;;;;;;;22.15;4.72;;;;;;;7.69;84.82;103483.75;5052070;28;20096;-73
2022/01/28 11:04:25;;;;;;;19.67;5.05;;;;;;;7.73;84.07;103488.06;5042469;28;20119;-73
2022/01/28 11:06:52;;;;;;;17.52;5.00;;;;;;;7.84;85.32;103486.97;5029676;28;20077;-73
2022/01/28 11:09:20;;;;;;;22.83;5.60;;;;;;;7.90;83.25;103486.81;5027544;28;20057;-73
2022/01/28 11:11:46;;;;;;;18.80;5.03;;;;;;;7.92;81.67;103483.22;5034547;28;20052;-73
2022/01/28 11:14:12;;;;;;;17.13;4.82;;;;;;;8.03;83.04;103485.63;5047883;28;20033;-73
2022/01/28 11:16:38;;;;;;;16.20;4.50;;;;;;;8.09;81.69;103479.31;5039996;28;20041;-74
2022/01/28 11:19:04;;;;;;;17.95;4.70;;;;;;;8.27;82.44;103475.34;5037291;28;20475;-74
2022/01/28 11:21:42;;;;;;;23.45;4.80;;;;;;;8.31;81.74;103463.78;5033545;28;20045;-74
2022/01/28 11:24:27;;;;;;;24.67;5.28;;;;;;;8.40;82.70;103458.25;5025403;28;20113;-74
2022/01/28 11:27:17;;;;;;;19.30;4.25;;;;;;;8.49;82.58;103450.13;5035606;28;20123;-74
2022/01/28 11:29:42;;;;;;;17.60;4.10;;;;;;;8.46;78.78;103449.31;5045891;28;20104;-74
2022/01/28 11:32:14;;;;;;;19.60;4.13;;;;;;;8.59;79.20;103448.06;5029031;28;20133;-74
2022/01/28 11:34:54;;;;;;;19.40;4.28;;;;;;;8.72;80.08;103450.41;5050437;28;20074;-72
2022/01/28 11:37:30;;;;;;;14.77;4.30;;;;;;;8.82;80.01;103446.59;5047284;28;20068;-72
2022/01/28 11:40:10;;;;;;;14.82;4.22;;;;;;;8.94;80.64;103440.09;5043686;28;20082;-74
2022/01/28 11:42:36;;;;;;;19.38;4.53;;;;;;;8.95;78.15;103440.03;5015565;28;20033;-72
2022/01/28 11:45:05;;;;;;;21.05;4.38;;;;;;;8.90;76.39;103444.59;5017065;28;20544;-73
2022/01/28 11:47:35;;;;;;;15.52;4.03;;;;;;;8.91;76.31;103435.75;5016119;28;20071;-73
2022/01/28 11:50:18;;;;;;;14.45;3.72;;;;;;;9.04;77.80;103439.78;5017102;28;20037;-73
2022/01/28 11:52:52;;;;;;;15.88;3.47;;;;;;;9.17;77.04;103440.28;5016031;28;20427;-73
2022/01/28 11:55:17;;;;;;;16.15;3.28;;;;;;;9.28;74.77;103432.03;5019661;28;20034;-72
2022/01/28 11:58:11;;;;;;;15.70;3.22;;;;;;;9.46;77.68;103425.31;5031589;28;20044;-73
2022/01/28 12:00:41;;;;;;;15.43;3.63;;;;;;;9.52;71.67;103432.22;5037587;28;20103;-73
2022/01/28 12:03:22;;;;;;;13.63;2.95;;;;;;;9.57;73.11;103440.88;5025866;28;20041;-72
2022/01/28 12:05:47;;;;;;;11.90;3.63;;;;;;;9.60;71.19;103431.03;5031006;28;20057;-73
2022/01/28 12:08:15;;;;;;;15.77;3.73;;;;;;;9.55;70.59;103426.81;5041936;28;20064;-73
2022/01/28 12:10:44;;;;;;;10.48;3.20;;;;;;;9.56;70.79;103436.50;5043358;28;20381;-72
2022/01/28 12:13:16;;;;;;;10.27;2.90;;;;;;;9.53;69.25;103440.13;5050279;28;20074;-73
2022/01/28 12:16:01;;;;;;;10.18;2.95;;;;;;;9.50;71.13;103434.91;5042756;28;20502;-74
2022/01/28 12:18:45;;;;;;;9.20;2.50;;;;;;;9.40;71.54;103426.34;5049942;28;20025;-74
2022/01/28 12:21:15;;;;;;;13.20;3.30;;;;;;;9.25;67.98;103430.31;5049755;28;20025;-75
2022/01/28 12:23:41;;;;;;;11.45;3.08;;;;;;;9.23;69.92;103416.25;5029031;28;20045;-73
2022/01/28 12:26:07;;;;;;;12.00;3.25;;;;;;;9.13;68.36;103401.53;5048926;28;20025;-75
2022/01/28 12:28:32;;;;;;;11.00;3.53;;;;;;;9.07;68.51;103388.44;5035491;28;20050;-74
2022/01/28 12:31:06;;;;;;;14.60;3.93;;;;;;;9.03;69.84;103389.47;5030840;28;20029;-75
2022/01/28 12:33:34;;;;;;;12.10;3.17;;;;;;;9.07;70.60;103393.75;5028103;28;20033;-76
2022/01/28 12:36:07;;;;;;;12.38;3.80;;;;;;;9.03;71.10;103389.47;5039422;28;20044;-76
2022/01/28 12:38:34;;;;;;;10.85;3.80;;;;;;;9.08;72.45;103387.56;5042686;28;20034;-75
2022/01/28 12:41:07;;;;;;;18.33;4.72;;;;;;;9.05;70.59;103387.63;5043860;28;21224;-75
2022/01/28 12:43:33;;;;;;;12.35;4.70;;;;;;;9.00;69.92;103385.13;5045633;28;20025;-71
2022/01/28 12:46:05;;;;;;;14.52;4.28;;;;;;;9.05;71.88;103377.03;5050827;28;20025;-71
2022/01/28 12:48:30;;;;;;;13.48;4.80;;;;;;;9.14;72.26;103389.13;5009867;28;20026;-74
2022/01/28 12:50:57;;;;;;;14.48;4.65;;;;;;;9.19;71.52;103388.09;5009791;28;20084;-72
2022/01/28 12:53:30;;;;;;;14.10;4.82;;;;;;;9.13;71.02;103375.03;5035780;28;20029;-74
2022/01/28 12:55:59;;;;;;;14.75;4.38;;;;;;;9.17;71.49;103373.16;5040207;28;20424;-70